sensor_id;sensor_type;location;lat;lon;timestamp;P1;durP1;ratioP1;P2;durP2;ratioP2
6394;SDS011;3230;42.588;23.358;2022-12-18T00:02:09;6.87;;;4.50;;
6394;SDS011;3230;42.588;23.358;2022-12-18T00:04:37;6.20;;;4.33;;
6394;SDS011;3230;42.588;23.358;2022-12-18T00:07:03;11.30;;;5.03;;
6394;SDS011;3230;42.588;23.358;2022-12-18T00:09:28;6.50;;;4.70;;
6394;SDS011;3230;42.588;23.358;2022-12-18T00:11:54;7.13;;;5.03;;
6394;SDS011;3230;42.588;23.358;2022-12-18T00:14:19;8.07;;;4.87;;
6394;SDS011;3230;42.588;23.358;2022-12-18T00:16:45;7.83;;;5.17;;
6394;SDS011;3230;42.588;23.358;2022-12-18T00:19:11;9.07;;;6.43;;
6394;SDS011;3230;42.588;23.358;2022-12-18T00:21:38;8.17;;;5.97;;
6394;SDS011;3230;42.588;23.358;2022-12-18T00:24:06;11.33;;;6.53;;
6394;SDS011;3230;42.588;23.358;2022-12-18T00:26:33;12.50;;;7.00;;
6394;SDS011;3230;42.588;23.358;2022-12-18T00:29:00;9.13;;;6.00;;
6394;SDS011;3230;42.588;23.358;2022-12-18T00:31:31;10.87;;;5.83;;
6394;SDS011;3230;42.588;23.358;2022-12-18T00:33:57;7.90;;;5.90;;
6394;SDS011;3230;42.588;23.358;2022-12-18T00:36:24;10.70;;;5.57;;
6394;SDS011;3230;42.588;23.358;2022-12-18T00:38:52;11.60;;;6.73;;
6394;SDS011;3230;42.588;23.358;2022-12-18T00:41:19;10.27;;;6.23;;
6394;SDS011;3230;42.588;23.358;2022-12-18T00:44:03;14.43;;;7.77;;
6394;SDS011;3230;42.588;23.358;2022-12-18T00:46:29;12.37;;;7.63;;
6394;SDS011;3230;42.588;23.358;2022-12-18T00:48:55;9.17;;;5.60;;
6394;SDS011;3230;42.588;23.358;2022-12-18T00:51:20;9.00;;;5.57;;
6394;SDS011;3230;42.588;23.358;2022-12-18T00:53:46;8.93;;;6.60;;
6394;SDS011;3230;42.588;23.358;2022-12-18T00:56:11;8.90;;;5.90;;
6394;SDS011;3230;42.588;23.358;2022-12-18T00:58:37;11.90;;;6.10;;
6394;SDS011;3230;42.588;23.358;2022-12-18T01:01:05;8.70;;;5.80;;
6394;SDS011;3230;42.588;23.358;2022-12-18T01:03:31;7.70;;;4.40;;
6394;SDS011;3230;42.588;23.358;2022-12-18T01:05:56;5.27;;;3.93;;
6394;SDS011;3230;42.588;23.358;2022-12-18T01:08:22;6.07;;;4.03;;
6394;SDS011;3230;42.588;23.358;2022-12-18T01:10:48;6.73;;;4.27;;
6394;SDS011;3230;42.588;23.358;2022-12-18T01:13:13;8.23;;;5.60;;
6394;SDS011;3230;42.588;23.358;2022-12-18T01:15:38;6.70;;;4.43;;
6394;SDS011;3230;42.588;23.358;2022-12-18T01:18:05;7.53;;;5.43;;
6394;SDS011;3230;42.588;23.358;2022-12-18T01:20:31;5.53;;;3.63;;
6394;SDS011;3230;42.588;23.358;2022-12-18T01:22:57;7.43;;;4.30;;
6394;SDS011;3230;42.588;23.358;2022-12-18T01:25:22;6.37;;;4.07;;
6394;SDS011;3230;42.588;23.358;2022-12-18T01:27:47;8.43;;;4.23;;
6394;SDS011;3230;42.588;23.358;2022-12-18T01:30:13;6.87;;;4.03;;
6394;SDS011;3230;42.588;23.358;2022-12-18T01:32:38;4.70;;;3.50;;
6394;SDS011;3230;42.588;23.358;2022-12-18T01:35:04;5.00;;;3.47;;
6394;SDS011;3230;42.588;23.358;2022-12-18T01:37:30;4.25;;;3.15;;
6394;SDS011;3230;42.588;23.358;2022-12-18T01:39:56;6.90;;;4.40;;
6394;SDS011;3230;42.588;23.358;2022-12-18T01:42:21;6.87;;;4.03;;
6394;SDS011;3230;42.588;23.358;2022-12-18T01:44:58;6.30;;;4.30;;
6394;SDS011;3230;42.588;23.358;2022-12-18T01:52:53;6.20;;;3.57;;
6394;SDS011;3230;42.588;23.358;2022-12-18T01:55:20;7.13;;;4.13;;
6394;SDS011;3230;42.588;23.358;2022-12-18T01:57:51;5.67;;;4.00;;
6394;SDS011;3230;42.588;23.358;2022-12-18T02:00:19;6.53;;;4.22;;
6394;SDS011;3230;42.588;23.358;2022-12-18T02:02:46;5.40;;;3.87;;
6394;SDS011;3230;42.588;23.358;2022-12-18T02:05:15;6.47;;;3.80;;
6394;SDS011;3230;42.588;23.358;2022-12-18T02:10:39;5.90;;;4.10;;
6394;SDS011;3230;42.588;23.358;2022-12-18T02:18:20;6.33;;;4.53;;
6394;SDS011;3230;42.588;23.358;2022-12-18T02:20:50;6.85;;;4.50;;
6394;SDS011;3230;42.588;23.358;2022-12-18T02:23:29;6.95;;;4.28;;
6394;SDS011;3230;42.588;23.358;2022-12-18T02:28:34;9.77;;;5.55;;
6394;SDS011;3230;42.588;23.358;2022-12-18T02:31:06;9.00;;;5.13;;
6394;SDS011;3230;42.588;23.358;2022-12-18T02:33:35;6.10;;;3.75;;
6394;SDS011;3230;42.588;23.358;2022-12-18T02:36:03;5.77;;;4.13;;
6394;SDS011;3230;42.588;23.358;2022-12-18T02:38:30;9.17;;;5.67;;
6394;SDS011;3230;42.588;23.358;2022-12-18T02:40:57;8.40;;;5.70;;
6394;SDS011;3230;42.588;23.358;2022-12-18T02:43:23;9.00;;;5.57;;
6394;SDS011;3230;42.588;23.358;2022-12-18T02:45:58;10.10;;;5.50;;
6394;SDS011;3230;42.588;23.358;2022-12-18T02:48:44;8.10;;;5.30;;
6394;SDS011;3230;42.588;23.358;2022-12-18T02:53:41;10.10;;;5.30;;
6394;SDS011;3230;42.588;23.358;2022-12-18T02:56:15;7.80;;;5.40;;
6394;SDS011;3230;42.588;23.358;2022-12-18T03:01:43;29.30;;;7.20;;
6394;SDS011;3230;42.588;23.358;2022-12-18T03:04:27;12.27;;;6.93;;
6394;SDS011;3230;42.588;23.358;2022-12-18T03:07:09;9.07;;;5.67;;
6394;SDS011;3230;42.588;23.358;2022-12-18T03:09:49;10.20;;;6.17;;
6394;SDS011;3230;42.588;23.358;2022-12-18T03:15:04;9.07;;;5.57;;
6394;SDS011;3230;42.588;23.358;2022-12-18T03:17:35;8.63;;;5.50;;
6394;SDS011;3230;42.588;23.358;2022-12-18T03:20:05;8.83;;;5.90;;
6394;SDS011;3230;42.588;23.358;2022-12-18T03:22:37;11.82;;;6.50;;
6394;SDS011;3230;42.588;23.358;2022-12-18T03:25:04;8.55;;;5.20;;
6394;SDS011;3230;42.588;23.358;2022-12-18T03:27:32;8.77;;;6.10;;
6394;SDS011;3230;42.588;23.358;2022-12-18T03:30:02;8.98;;;5.60;;
6394;SDS011;3230;42.588;23.358;2022-12-18T03:32:44;9.65;;;5.75;;
6394;SDS011;3230;42.588;23.358;2022-12-18T03:35:23;9.85;;;5.38;;
6394;SDS011;3230;42.588;23.358;2022-12-18T03:37:53;9.15;;;5.90;;
6394;SDS011;3230;42.588;23.358;2022-12-18T03:40:20;8.47;;;5.20;;
6394;SDS011;3230;42.588;23.358;2022-12-18T03:42:52;10.00;;;5.88;;
6394;SDS011;3230;42.588;23.358;2022-12-18T03:45:32;8.95;;;5.05;;
6394;SDS011;3230;42.588;23.358;2022-12-18T03:48:08;10.02;;;5.60;;
6394;SDS011;3230;42.588;23.358;2022-12-18T03:50:57;7.88;;;4.60;;
6394;SDS011;3230;42.588;23.358;2022-12-18T03:56:16;7.28;;;4.85;;
6394;SDS011;3230;42.588;23.358;2022-12-18T03:58:45;10.60;;;5.88;;
6394;SDS011;3230;42.588;23.358;2022-12-18T04:01:13;7.72;;;4.90;;
6394;SDS011;3230;42.588;23.358;2022-12-18T04:03:43;18.02;;;5.78;;
6394;SDS011;3230;42.588;23.358;2022-12-18T04:06:11;6.53;;;3.58;;
6394;SDS011;3230;42.588;23.358;2022-12-18T04:08:38;10.98;;;5.72;;
6394;SDS011;3230;42.588;23.358;2022-12-18T04:11:05;10.05;;;5.25;;
6394;SDS011;3230;42.588;23.358;2022-12-18T04:13:34;6.37;;;4.00;;
6394;SDS011;3230;42.588;23.358;2022-12-18T04:16:01;6.68;;;4.30;;
6394;SDS011;3230;42.588;23.358;2022-12-18T04:18:27;7.57;;;4.17;;
6394;SDS011;3230;42.588;23.358;2022-12-18T04:20:52;5.67;;;3.93;;
6394;SDS011;3230;42.588;23.358;2022-12-18T04:23:18;7.10;;;4.93;;
6394;SDS011;3230;42.588;23.358;2022-12-18T04:25:43;6.40;;;4.47;;
6394;SDS011;3230;42.588;23.358;2022-12-18T04:28:09;6.83;;;4.40;;
6394;SDS011;3230;42.588;23.358;2022-12-18T04:30:34;7.03;;;4.30;;
6394;SDS011;3230;42.588;23.358;2022-12-18T04:33:00;6.63;;;3.83;;
6394;SDS011;3230;42.588;23.358;2022-12-18T04:35:25;5.77;;;3.50;;
6394;SDS011;3230;42.588;23.358;2022-12-18T04:37:51;6.30;;;3.13;;
6394;SDS011;3230;42.588;23.358;2022-12-18T04:40:16;5.37;;;3.10;;
6394;SDS011;3230;42.588;23.358;2022-12-18T04:42:42;5.03;;;3.30;;
6394;SDS011;3230;42.588;23.358;2022-12-18T04:45:07;4.20;;;3.20;;
6394;SDS011;3230;42.588;23.358;2022-12-18T04:47:33;5.40;;;3.70;;
6394;SDS011;3230;42.588;23.358;2022-12-18T04:49:58;6.60;;;3.43;;
6394;SDS011;3230;42.588;23.358;2022-12-18T04:52:24;6.80;;;3.50;;
6394;SDS011;3230;42.588;23.358;2022-12-18T04:54:49;6.47;;;3.90;;
6394;SDS011;3230;42.588;23.358;2022-12-18T04:57:15;6.27;;;4.10;;
6394;SDS011;3230;42.588;23.358;2022-12-18T04:59:40;6.13;;;4.17;;
6394;SDS011;3230;42.588;23.358;2022-12-18T05:02:06;10.50;;;5.60;;
6394;SDS011;3230;42.588;23.358;2022-12-18T05:04:31;8.70;;;4.80;;
6394;SDS011;3230;42.588;23.358;2022-12-18T05:06:57;6.90;;;4.80;;
6394;SDS011;3230;42.588;23.358;2022-12-18T05:09:22;12.47;;;6.07;;
6394;SDS011;3230;42.588;23.358;2022-12-18T05:11:48;8.10;;;4.20;;
6394;SDS011;3230;42.588;23.358;2022-12-18T05:14:13;6.40;;;4.10;;
6394;SDS011;3230;42.588;23.358;2022-12-18T05:16:39;6.27;;;3.77;;
6394;SDS011;3230;42.588;23.358;2022-12-18T05:19:04;7.40;;;4.27;;
6394;SDS011;3230;42.588;23.358;2022-12-18T05:21:29;5.90;;;3.73;;
6394;SDS011;3230;42.588;23.358;2022-12-18T05:23:55;5.90;;;2.90;;
6394;SDS011;3230;42.588;23.358;2022-12-18T05:26:20;6.37;;;4.10;;
6394;SDS011;3230;42.588;23.358;2022-12-18T05:28:46;6.10;;;3.40;;
6394;SDS011;3230;42.588;23.358;2022-12-18T05:31:11;8.50;;;4.33;;
6394;SDS011;3230;42.588;23.358;2022-12-18T05:33:37;6.55;;;3.90;;
6394;SDS011;3230;42.588;23.358;2022-12-18T05:36:04;6.87;;;4.00;;
6394;SDS011;3230;42.588;23.358;2022-12-18T05:38:32;8.85;;;4.22;;
6394;SDS011;3230;42.588;23.358;2022-12-18T05:40:58;6.22;;;3.85;;
6394;SDS011;3230;42.588;23.358;2022-12-18T05:43:24;4.87;;;3.43;;
6394;SDS011;3230;42.588;23.358;2022-12-18T05:45:51;4.85;;;3.55;;
6394;SDS011;3230;42.588;23.358;2022-12-18T05:48:17;5.70;;;3.85;;
6394;SDS011;3230;42.588;23.358;2022-12-18T05:50:44;5.77;;;3.03;;
6394;SDS011;3230;42.588;23.358;2022-12-18T05:53:11;5.70;;;3.45;;
6394;SDS011;3230;42.588;23.358;2022-12-18T05:55:38;4.60;;;3.10;;
6394;SDS011;3230;42.588;23.358;2022-12-18T05:58:07;4.95;;;3.17;;
6394;SDS011;3230;42.588;23.358;2022-12-18T06:00:34;9.07;;;4.47;;
6394;SDS011;3230;42.588;23.358;2022-12-18T06:03:04;4.22;;;3.40;;
6394;SDS011;3230;42.588;23.358;2022-12-18T06:05:34;5.83;;;3.90;;
6394;SDS011;3230;42.588;23.358;2022-12-18T06:08:03;6.10;;;4.10;;
6394;SDS011;3230;42.588;23.358;2022-12-18T06:10:29;9.57;;;4.50;;
6394;SDS011;3230;42.588;23.358;2022-12-18T06:12:55;5.63;;;3.27;;
6394;SDS011;3230;42.588;23.358;2022-12-18T06:15:20;8.30;;;4.50;;
6394;SDS011;3230;42.588;23.358;2022-12-18T06:17:45;8.43;;;4.10;;
6394;SDS011;3230;42.588;23.358;2022-12-18T06:20:11;8.60;;;4.53;;
6394;SDS011;3230;42.588;23.358;2022-12-18T06:22:36;7.80;;;4.30;;
6394;SDS011;3230;42.588;23.358;2022-12-18T06:25:02;8.30;;;4.47;;
6394;SDS011;3230;42.588;23.358;2022-12-18T06:27:28;6.78;;;3.85;;
6394;SDS011;3230;42.588;23.358;2022-12-18T06:29:53;7.47;;;4.43;;
6394;SDS011;3230;42.588;23.358;2022-12-18T06:32:19;6.05;;;3.92;;
6394;SDS011;3230;42.588;23.358;2022-12-18T06:34:45;5.80;;;4.00;;
6394;SDS011;3230;42.588;23.358;2022-12-18T06:37:10;6.70;;;4.33;;
6394;SDS011;3230;42.588;23.358;2022-12-18T06:39:36;6.50;;;4.53;;
6394;SDS011;3230;42.588;23.358;2022-12-18T06:42:01;7.70;;;4.17;;
6394;SDS011;3230;42.588;23.358;2022-12-18T06:44:27;9.88;;;4.35;;
6394;SDS011;3230;42.588;23.358;2022-12-18T06:46:53;6.90;;;3.57;;
6394;SDS011;3230;42.588;23.358;2022-12-18T06:49:18;5.67;;;3.30;;
6394;SDS011;3230;42.588;23.358;2022-12-18T06:51:43;6.87;;;4.07;;
6394;SDS011;3230;42.588;23.358;2022-12-18T06:54:09;7.57;;;4.87;;
6394;SDS011;3230;42.588;23.358;2022-12-18T06:56:34;7.47;;;4.43;;
6394;SDS011;3230;42.588;23.358;2022-12-18T06:59:00;6.03;;;4.10;;
6394;SDS011;3230;42.588;23.358;2022-12-18T07:01:25;6.90;;;4.10;;
6394;SDS011;3230;42.588;23.358;2022-12-18T07:03:52;7.13;;;4.23;;
6394;SDS011;3230;42.588;23.358;2022-12-18T07:06:20;7.00;;;4.13;;
6394;SDS011;3230;42.588;23.358;2022-12-18T07:08:47;8.43;;;4.18;;
6394;SDS011;3230;42.588;23.358;2022-12-18T07:11:14;8.90;;;4.75;;
6394;SDS011;3230;42.588;23.358;2022-12-18T07:13:39;12.03;;;5.53;;
6394;SDS011;3230;42.588;23.358;2022-12-18T07:16:05;21.70;;;11.13;;
6394;SDS011;3230;42.588;23.358;2022-12-18T07:18:32;18.35;;;9.10;;
6394;SDS011;3230;42.588;23.358;2022-12-18T07:20:58;19.23;;;10.10;;
6394;SDS011;3230;42.588;23.358;2022-12-18T07:23:27;8.93;;;5.70;;
6394;SDS011;3230;42.588;23.358;2022-12-18T07:25:53;9.13;;;6.47;;
6394;SDS011;3230;42.588;23.358;2022-12-18T07:28:18;8.63;;;5.00;;
6394;SDS011;3230;42.588;23.358;2022-12-18T07:30:44;7.73;;;5.10;;
6394;SDS011;3230;42.588;23.358;2022-12-18T07:33:09;12.40;;;7.70;;
6394;SDS011;3230;42.588;23.358;2022-12-18T07:35:35;20.77;;;13.63;;
6394;SDS011;3230;42.588;23.358;2022-12-18T07:38:01;11.43;;;6.88;;
6394;SDS011;3230;42.588;23.358;2022-12-18T07:40:27;10.83;;;6.83;;
6394;SDS011;3230;42.588;23.358;2022-12-18T07:42:52;16.80;;;9.90;;
6394;SDS011;3230;42.588;23.358;2022-12-18T07:45:17;13.17;;;7.60;;
6394;SDS011;3230;42.588;23.358;2022-12-18T07:47:43;12.37;;;7.13;;
6394;SDS011;3230;42.588;23.358;2022-12-18T07:50:08;9.70;;;6.63;;
6394;SDS011;3230;42.588;23.358;2022-12-18T07:52:34;10.70;;;6.07;;
6394;SDS011;3230;42.588;23.358;2022-12-18T07:55:00;11.90;;;6.10;;
6394;SDS011;3230;42.588;23.358;2022-12-18T07:57:25;8.70;;;5.03;;
6394;SDS011;3230;42.588;23.358;2022-12-18T07:59:50;8.57;;;5.30;;
6394;SDS011;3230;42.588;23.358;2022-12-18T08:02:16;10.03;;;5.27;;
6394;SDS011;3230;42.588;23.358;2022-12-18T08:04:41;8.47;;;4.97;;
6394;SDS011;3230;42.588;23.358;2022-12-18T08:07:07;7.80;;;4.63;;
6394;SDS011;3230;42.588;23.358;2022-12-18T08:09:32;8.13;;;5.00;;
6394;SDS011;3230;42.588;23.358;2022-12-18T08:11:57;8.50;;;4.37;;
6394;SDS011;3230;42.588;23.358;2022-12-18T08:14:23;7.90;;;4.90;;
6394;SDS011;3230;42.588;23.358;2022-12-18T08:16:48;7.20;;;4.13;;
6394;SDS011;3230;42.588;23.358;2022-12-18T08:19:14;9.43;;;4.83;;
6394;SDS011;3230;42.588;23.358;2022-12-18T08:21:39;8.10;;;4.87;;
6394;SDS011;3230;42.588;23.358;2022-12-18T08:24:06;9.48;;;6.50;;
6394;SDS011;3230;42.588;23.358;2022-12-18T08:26:31;18.83;;;9.90;;
6394;SDS011;3230;42.588;23.358;2022-12-18T08:28:58;14.13;;;9.07;;
6394;SDS011;3230;42.588;23.358;2022-12-18T08:31:25;9.68;;;6.00;;
6394;SDS011;3230;42.588;23.358;2022-12-18T08:33:52;13.98;;;6.75;;
6394;SDS011;3230;42.588;23.358;2022-12-18T08:36:18;10.87;;;6.40;;
6394;SDS011;3230;42.588;23.358;2022-12-18T08:38:45;11.88;;;6.68;;
6394;SDS011;3230;42.588;23.358;2022-12-18T08:41:11;12.40;;;6.37;;
6394;SDS011;3230;42.588;23.358;2022-12-18T08:43:38;14.80;;;7.30;;
6394;SDS011;3230;42.588;23.358;2022-12-18T08:46:24;9.85;;;6.53;;
6394;SDS011;3230;42.588;23.358;2022-12-18T08:48:51;15.00;;;7.32;;
6394;SDS011;3230;42.588;23.358;2022-12-18T08:51:17;11.50;;;6.72;;
6394;SDS011;3230;42.588;23.358;2022-12-18T08:53:43;12.18;;;6.63;;
6394;SDS011;3230;42.588;23.358;2022-12-18T08:56:10;14.80;;;7.38;;
6394;SDS011;3230;42.588;23.358;2022-12-18T08:58:35;14.40;;;8.10;;
6394;SDS011;3230;42.588;23.358;2022-12-18T09:01:05;18.10;;;9.60;;
6394;SDS011;3230;42.588;23.358;2022-12-18T09:03:31;23.02;;;11.73;;
6394;SDS011;3230;42.588;23.358;2022-12-18T09:05:58;33.40;;;14.95;;
6394;SDS011;3230;42.588;23.358;2022-12-18T09:08:24;19.48;;;9.43;;
6394;SDS011;3230;42.588;23.358;2022-12-18T09:10:50;15.83;;;8.60;;
6394;SDS011;3230;42.588;23.358;2022-12-18T09:13:15;17.30;;;10.40;;
6394;SDS011;3230;42.588;23.358;2022-12-18T09:15:42;23.58;;;10.63;;
6394;SDS011;3230;42.588;23.358;2022-12-18T09:18:08;16.75;;;9.10;;
6394;SDS011;3230;42.588;23.358;2022-12-18T09:20:34;19.83;;;10.70;;
6394;SDS011;3230;42.588;23.358;2022-12-18T09:23:01;49.63;;;20.63;;
6394;SDS011;3230;42.588;23.358;2022-12-18T09:25:26;19.03;;;10.00;;
6394;SDS011;3230;42.588;23.358;2022-12-18T09:27:56;15.40;;;8.80;;
6394;SDS011;3230;42.588;23.358;2022-12-18T09:30:22;15.40;;;9.00;;
6394;SDS011;3230;42.588;23.358;2022-12-18T09:32:47;21.00;;;11.60;;
6394;SDS011;3230;42.588;23.358;2022-12-18T09:35:13;32.90;;;15.37;;
6394;SDS011;3230;42.588;23.358;2022-12-18T09:37:38;64.37;;;23.13;;
6394;SDS011;3230;42.588;23.358;2022-12-18T09:40:04;24.13;;;11.50;;
6394;SDS011;3230;42.588;23.358;2022-12-18T09:42:29;17.60;;;9.60;;
6394;SDS011;3230;42.588;23.358;2022-12-18T09:44:55;19.00;;;10.50;;
6394;SDS011;3230;42.588;23.358;2022-12-18T09:47:28;17.00;;;9.97;;
6394;SDS011;3230;42.588;23.358;2022-12-18T09:50:01;21.83;;;11.48;;
6394;SDS011;3230;42.588;23.358;2022-12-18T09:52:34;21.35;;;10.82;;
6394;SDS011;3230;42.588;23.358;2022-12-18T09:55:05;27.80;;;12.80;;
6394;SDS011;3230;42.588;23.358;2022-12-18T09:57:42;19.90;;;10.77;;
6394;SDS011;3230;42.588;23.358;2022-12-18T10:00:19;24.45;;;12.38;;
6394;SDS011;3230;42.588;23.358;2022-12-18T10:02:47;20.23;;;10.63;;
6394;SDS011;3230;42.588;23.358;2022-12-18T10:05:15;21.05;;;11.05;;
6394;SDS011;3230;42.588;23.358;2022-12-18T10:21:05;23.90;;;11.80;;
6394;SDS011;3230;42.588;23.358;2022-12-18T10:26:47;21.58;;;10.98;;
6394;SDS011;3230;42.588;23.358;2022-12-18T10:29:13;16.97;;;9.17;;
6394;SDS011;3230;42.588;23.358;2022-12-18T10:31:40;19.05;;;9.40;;
6394;SDS011;3230;42.588;23.358;2022-12-18T10:34:09;17.53;;;9.20;;
6394;SDS011;3230;42.588;23.358;2022-12-18T10:36:41;19.80;;;9.07;;
6394;SDS011;3230;42.588;23.358;2022-12-18T10:39:17;18.48;;;9.93;;
6394;SDS011;3230;42.588;23.358;2022-12-18T10:41:44;19.35;;;9.95;;
6394;SDS011;3230;42.588;23.358;2022-12-18T10:44:22;17.93;;;10.10;;
6394;SDS011;3230;42.588;23.358;2022-12-18T10:46:54;16.15;;;9.30;;
6394;SDS011;3230;42.588;23.358;2022-12-18T10:49:29;18.40;;;10.20;;
6394;SDS011;3230;42.588;23.358;2022-12-18T10:52:15;20.83;;;10.95;;
6394;SDS011;3230;42.588;23.358;2022-12-18T10:54:52;19.90;;;10.23;;
6394;SDS011;3230;42.588;23.358;2022-12-18T10:59:55;22.40;;;11.45;;
6394;SDS011;3230;42.588;23.358;2022-12-18T11:02:35;17.25;;;9.15;;
6394;SDS011;3230;42.588;23.358;2022-12-18T11:05:22;21.88;;;11.07;;
6394;SDS011;3230;42.588;23.358;2022-12-18T11:07:56;20.60;;;11.48;;
6394;SDS011;3230;42.588;23.358;2022-12-18T11:10:32;25.47;;;12.23;;
6394;SDS011;3230;42.588;23.358;2022-12-18T11:13:16;22.73;;;11.10;;
6394;SDS011;3230;42.588;23.358;2022-12-18T11:15:44;22.08;;;10.60;;
6394;SDS011;3230;42.588;23.358;2022-12-18T11:19:01;23.50;;;11.00;;
6394;SDS011;3230;42.588;23.358;2022-12-18T11:20:57;21.65;;;10.80;;
6394;SDS011;3230;42.588;23.358;2022-12-18T11:23:25;22.65;;;10.35;;
6394;SDS011;3230;42.588;23.358;2022-12-18T11:25:59;21.05;;;10.75;;
6394;SDS011;3230;42.588;23.358;2022-12-18T11:34:00;21.90;;;10.90;;
6394;SDS011;3230;42.588;23.358;2022-12-18T11:36:34;21.30;;;10.60;;
6394;SDS011;3230;42.588;23.358;2022-12-18T11:39:07;14.48;;;7.47;;
6394;SDS011;3230;42.588;23.358;2022-12-18T11:41:43;23.50;;;8.63;;
6394;SDS011;3230;42.588;23.358;2022-12-18T11:44:41;15.25;;;8.20;;
6394;SDS011;3230;42.588;23.358;2022-12-18T11:47:21;18.20;;;9.60;;
6394;SDS011;3230;42.588;23.358;2022-12-18T11:49:55;25.60;;;13.60;;
6394;SDS011;3230;42.588;23.358;2022-12-18T11:52:26;33.47;;;14.48;;
6394;SDS011;3230;42.588;23.358;2022-12-18T11:54:56;22.88;;;11.57;;
6394;SDS011;3230;42.588;23.358;2022-12-18T11:57:34;15.25;;;7.70;;
6394;SDS011;3230;42.588;23.358;2022-12-18T12:00:19;17.67;;;9.05;;
6394;SDS011;3230;42.588;23.358;2022-12-18T12:07:57;38.45;;;17.30;;
6394;SDS011;3230;42.588;23.358;2022-12-18T12:19:36;29.75;;;13.85;;
6394;SDS011;3230;42.588;23.358;2022-12-18T12:22:24;32.58;;;15.25;;
6394;SDS011;3230;42.588;23.358;2022-12-18T12:25:35;30.42;;;14.93;;
6394;SDS011;3230;42.588;23.358;2022-12-18T12:33:44;27.65;;;13.10;;
6394;SDS011;3230;42.588;23.358;2022-12-18T12:39:11;16.58;;;8.77;;
6394;SDS011;3230;42.588;23.358;2022-12-18T12:41:43;12.55;;;7.00;;
6394;SDS011;3230;42.588;23.358;2022-12-18T12:44:40;19.10;;;10.10;;
6394;SDS011;3230;42.588;23.358;2022-12-18T12:47:25;14.60;;;7.68;;
6394;SDS011;3230;42.588;23.358;2022-12-18T12:49:54;16.13;;;8.52;;
6394;SDS011;3230;42.588;23.358;2022-12-18T12:52:30;14.45;;;7.20;;
6394;SDS011;3230;42.588;23.358;2022-12-18T12:55:07;12.77;;;7.00;;
6394;SDS011;3230;42.588;23.358;2022-12-18T12:57:41;10.95;;;6.97;;
6394;SDS011;3230;42.588;23.358;2022-12-18T13:00:14;13.13;;;7.20;;
6394;SDS011;3230;42.588;23.358;2022-12-18T13:08:10;14.25;;;8.07;;
6394;SDS011;3230;42.588;23.358;2022-12-18T13:10:41;17.95;;;8.48;;
6394;SDS011;3230;42.588;23.358;2022-12-18T13:13:11;18.25;;;8.82;;
6394;SDS011;3230;42.588;23.358;2022-12-18T13:15:39;15.10;;;8.35;;
6394;SDS011;3230;42.588;23.358;2022-12-18T13:20:34;18.23;;;9.20;;
6394;SDS011;3230;42.588;23.358;2022-12-18T13:23:00;19.00;;;9.10;;
6394;SDS011;3230;42.588;23.358;2022-12-18T13:25:29;20.10;;;8.97;;
6394;SDS011;3230;42.588;23.358;2022-12-18T13:28:01;18.83;;;9.18;;
6394;SDS011;3230;42.588;23.358;2022-12-18T13:36:14;16.77;;;8.70;;
6394;SDS011;3230;42.588;23.358;2022-12-18T13:41:54;18.05;;;9.95;;
6394;SDS011;3230;42.588;23.358;2022-12-18T13:44:57;21.45;;;10.25;;
6394;SDS011;3230;42.588;23.358;2022-12-18T13:47:32;16.93;;;8.30;;
6394;SDS011;3230;42.588;23.358;2022-12-18T13:50:00;19.40;;;9.93;;
6394;SDS011;3230;42.588;23.358;2022-12-18T13:52:34;29.17;;;13.75;;
6394;SDS011;3230;42.588;23.358;2022-12-18T13:55:06;30.00;;;13.00;;
6394;SDS011;3230;42.588;23.358;2022-12-18T13:57:42;33.45;;;16.30;;
6394;SDS011;3230;42.588;23.358;2022-12-18T14:02:53;39.38;;;17.35;;
6394;SDS011;3230;42.588;23.358;2022-12-18T14:05:27;29.63;;;14.82;;
6394;SDS011;3230;42.588;23.358;2022-12-18T14:07:55;37.47;;;18.75;;
6394;SDS011;3230;42.588;23.358;2022-12-18T14:10:25;53.40;;;22.98;;
6394;SDS011;3230;42.588;23.358;2022-12-18T14:12:51;38.40;;;16.57;;
6394;SDS011;3230;42.588;23.358;2022-12-18T14:17:55;33.83;;;15.70;;
6394;SDS011;3230;42.588;23.358;2022-12-18T14:20:21;29.88;;;13.40;;
6394;SDS011;3230;42.588;23.358;2022-12-18T14:22:48;26.88;;;12.98;;
6394;SDS011;3230;42.588;23.358;2022-12-18T14:25:21;33.53;;;13.77;;
6394;SDS011;3230;42.588;23.358;2022-12-18T14:30:34;44.63;;;17.65;;
6394;SDS011;3230;42.588;23.358;2022-12-18T14:35:34;33.67;;;15.75;;
6394;SDS011;3230;42.588;23.358;2022-12-18T14:40:44;45.30;;;19.10;;
6394;SDS011;3230;42.588;23.358;2022-12-18T14:43:10;26.00;;;13.33;;
6394;SDS011;3230;42.588;23.358;2022-12-18T14:45:36;24.13;;;12.25;;
6394;SDS011;3230;42.588;23.358;2022-12-18T14:48:30;22.35;;;11.95;;
6394;SDS011;3230;42.588;23.358;2022-12-18T14:51:04;22.02;;;10.90;;
6394;SDS011;3230;42.588;23.358;2022-12-18T14:58:46;41.38;;;18.80;;
6394;SDS011;3230;42.588;23.358;2022-12-18T15:01:21;33.15;;;16.45;;
6394;SDS011;3230;42.588;23.358;2022-12-18T15:04:22;34.25;;;16.50;;
6394;SDS011;3230;42.588;23.358;2022-12-18T15:06:48;38.63;;;17.38;;
6394;SDS011;3230;42.588;23.358;2022-12-18T15:09:21;27.37;;;12.80;;
6394;SDS011;3230;42.588;23.358;2022-12-18T15:11:48;25.10;;;12.10;;
6394;SDS011;3230;42.588;23.358;2022-12-18T15:17:17;28.88;;;13.65;;
6394;SDS011;3230;42.588;23.358;2022-12-18T15:19:44;28.25;;;13.52;;
6394;SDS011;3230;42.588;23.358;2022-12-18T15:22:21;26.77;;;12.60;;
6394;SDS011;3230;42.588;23.358;2022-12-18T15:24:50;29.60;;;12.77;;
6394;SDS011;3230;42.588;23.358;2022-12-18T15:27:22;25.00;;;13.50;;
6394;SDS011;3230;42.588;23.358;2022-12-18T15:30:15;22.02;;;10.55;;
6394;SDS011;3230;42.588;23.358;2022-12-18T15:32:45;21.55;;;11.00;;
6394;SDS011;3230;42.588;23.358;2022-12-18T15:37:41;25.52;;;10.93;;
6394;SDS011;3230;42.588;23.358;2022-12-18T15:40:08;20.65;;;10.55;;
6394;SDS011;3230;42.588;23.358;2022-12-18T15:42:38;22.48;;;10.75;;
6394;SDS011;3230;42.588;23.358;2022-12-18T15:45:22;21.65;;;11.57;;
6394;SDS011;3230;42.588;23.358;2022-12-18T15:47:47;29.97;;;10.90;;
6394;SDS011;3230;42.588;23.358;2022-12-18T15:50:13;22.00;;;10.63;;
6394;SDS011;3230;42.588;23.358;2022-12-18T15:52:42;22.10;;;9.67;;
6394;SDS011;3230;42.588;23.358;2022-12-18T15:55:11;23.85;;;11.02;;
6394;SDS011;3230;42.588;23.358;2022-12-18T15:58:04;20.70;;;9.55;;
6394;SDS011;3230;42.588;23.358;2022-12-18T16:00:31;20.85;;;11.18;;
6394;SDS011;3230;42.588;23.358;2022-12-18T16:02:58;25.02;;;11.55;;
6394;SDS011;3230;42.588;23.358;2022-12-18T16:05:24;22.73;;;11.30;;
6394;SDS011;3230;42.588;23.358;2022-12-18T16:07:51;23.13;;;11.07;;
6394;SDS011;3230;42.588;23.358;2022-12-18T16:10:17;23.27;;;10.00;;
6394;SDS011;3230;42.588;23.358;2022-12-18T16:12:42;21.80;;;10.50;;
6394;SDS011;3230;42.588;23.358;2022-12-18T16:15:10;21.93;;;9.97;;
6394;SDS011;3230;42.588;23.358;2022-12-18T16:17:38;20.48;;;9.40;;
6394;SDS011;3230;42.588;23.358;2022-12-18T16:20:05;20.10;;;10.60;;
6394;SDS011;3230;42.588;23.358;2022-12-18T16:22:31;20.15;;;9.95;;
6394;SDS011;3230;42.588;23.358;2022-12-18T16:24:57;20.13;;;10.27;;
6394;SDS011;3230;42.588;23.358;2022-12-18T16:27:22;19.60;;;10.17;;
6394;SDS011;3230;42.588;23.358;2022-12-18T16:29:49;18.15;;;10.38;;
6394;SDS011;3230;42.588;23.358;2022-12-18T16:32:15;23.00;;;11.27;;
6394;SDS011;3230;42.588;23.358;2022-12-18T16:34:43;21.35;;;10.50;;
6394;SDS011;3230;42.588;23.358;2022-12-18T16:37:10;23.60;;;11.77;;
6394;SDS011;3230;42.588;23.358;2022-12-18T16:39:37;23.38;;;12.38;;
6394;SDS011;3230;42.588;23.358;2022-12-18T16:42:04;21.80;;;9.95;;
6394;SDS011;3230;42.588;23.358;2022-12-18T16:44:32;18.38;;;10.27;;
6394;SDS011;3230;42.588;23.358;2022-12-18T16:46:58;20.02;;;9.75;;
6394;SDS011;3230;42.588;23.358;2022-12-18T16:49:26;20.40;;;9.13;;
6394;SDS011;3230;42.588;23.358;2022-12-18T16:51:53;20.17;;;10.45;;
6394;SDS011;3230;42.588;23.358;2022-12-18T16:54:19;23.93;;;10.87;;
6394;SDS011;3230;42.588;23.358;2022-12-18T16:56:45;26.65;;;12.38;;
6394;SDS011;3230;42.588;23.358;2022-12-18T16:59:13;18.50;;;9.20;;